sensor_id;sensor_type;location;lat;lon;timestamp;pressure;altitude;pressure_sealevel;temperature;humidity
65553;BME280;72126;51.560;14.368;2024-02-23T00:00:34;97533.31;;;11.38;67.53
65553;BME280;72126;51.560;14.368;2024-02-23T00:02:59;97537.75;;;11.37;67.76
65553;BME280;72126;51.560;14.368;2024-02-23T00:05:24;97527.28;;;11.37;67.75
65553;BME280;72126;51.560;14.368;2024-02-23T00:07:49;97532.09;;;11.41;67.80
65553;BME280;72126;51.560;14.368;2024-02-23T00:10:15;97545.19;;;11.41;67.50
65553;BME280;72126;51.560;14.368;2024-02-23T00:12:40;97541.19;;;11.38;67.81
65553;BME280;72126;51.560;14.368;2024-02-23T00:15:05;97541.75;;;11.40;67.63
65553;BME280;72126;51.560;14.368;2024-02-23T00:17:31;97538.34;;;11.39;67.80
65553;BME280;72126;51.560;14.368;2024-02-23T00:19:56;97545.19;;;11.41;67.61
65553;BME280;72126;51.560;14.368;2024-02-23T00:22:21;97535.94;;;11.38;67.74
65553;BME280;72126;51.560;14.368;2024-02-23T00:24:46;97547.81;;;11.41;67.79
65553;BME280;72126;51.560;14.368;2024-02-23T00:27:12;97547.81;;;11.41;67.72
65553;BME280;72126;51.560;14.368;2024-02-23T00:29:37;97550.63;;;11.39;67.36
65553;BME280;72126;51.560;14.368;2024-02-23T00:32:03;97553.03;;;11.41;67.55
65553;BME280;72126;51.560;14.368;2024-02-23T00:34:28;97550.84;;;11.37;67.66
65553;BME280;72126;51.560;14.368;2024-02-23T00:36:54;97560.91;;;11.41;67.52
65553;BME280;72126;51.560;14.368;2024-02-23T00:39:19;97557.47;;;11.40;67.77
65553;BME280;72126;51.560;14.368;2024-02-23T00:41:44;97566.13;;;11.41;67.77
65553;BME280;72126;51.560;14.368;2024-02-23T00:44:09;97573.19;;;11.40;67.65
65553;BME280;72126;51.560;14.368;2024-02-23T00:46:34;97566.13;;;11.41;67.55
65553;BME280;72126;51.560;14.368;2024-02-23T00:48:59;97565.34;;;11.40;67.93
65553;BME280;72126;51.560;14.368;2024-02-23T00:51:25;97554.94;;;11.33;67.60
65553;BME280;72126;51.560;14.368;2024-02-23T00:53:50;97570.78;;;11.38;67.75
65553;BME280;72126;51.560;14.368;2024-02-23T00:56:15;97550.31;;;11.35;67.67
65553;BME280;72126;51.560;14.368;2024-02-23T00:58:40;97550.41;;;11.41;67.63
65553;BME280;72126;51.560;14.368;2024-02-23T01:01:06;97538.13;;;11.41;67.74
65553;BME280;72126;51.560;14.368;2024-02-23T01:03:31;97524.44;;;11.39;67.71
65553;BME280;72126;51.560;14.368;2024-02-23T01:05:56;97524.66;;;11.37;67.61
65553;BME280;72126;51.560;14.368;2024-02-23T01:08:22;97515.78;;;11.38;67.49
65553;BME280;72126;51.560;14.368;2024-02-23T01:10:47;97520.81;;;11.40;67.55
65553;BME280;72126;51.560;14.368;2024-02-23T01:13:12;97526.06;;;11.40;67.67
65553;BME280;72126;51.560;14.368;2024-02-23T01:15:37;97532.09;;;11.41;67.75
65553;BME280;72126;51.560;14.368;2024-02-23T01:18:03;97537.09;;;11.42;67.61
65553;BME280;72126;51.560;14.368;2024-02-23T01:20:29;97535.50;;;11.41;67.83
65553;BME280;72126;51.560;14.368;2024-02-23T01:22:54;97538.91;;;11.42;67.42
65553;BME280;72126;51.560;14.368;2024-02-23T01:25:19;97540.72;;;11.41;67.63
65553;BME280;72126;51.560;14.368;2024-02-23T01:27:44;97537.53;;;11.39;67.61
65553;BME280;72126;51.560;14.368;2024-02-23T01:30:10;97539.16;;;11.40;67.43
65553;BME280;72126;51.560;14.368;2024-02-23T01:32:35;97535.72;;;11.39;67.61
65553;BME280;72126;51.560;14.368;2024-02-23T01:35:00;97539.16;;;11.40;67.42
65553;BME280;72126;51.560;14.368;2024-02-23T01:37:25;97553.84;;;11.41;67.47
65553;BME280;72126;51.560;14.368;2024-02-23T01:39:51;97551.66;;;11.38;67.75
65553;BME280;72126;51.560;14.368;2024-02-23T01:42:16;97572.16;;;11.41;67.62
65553;BME280;72126;51.560;14.368;2024-02-23T01:44:41;97576.03;;;11.38;67.75
65553;BME280;72126;51.560;14.368;2024-02-23T01:47:06;97601.22;;;11.39;67.54
65553;BME280;72126;51.560;14.368;2024-02-23T01:49:33;97609.63;;;11.42;67.75
65553;BME280;72126;51.560;14.368;2024-02-23T01:52:00;97622.72;;;11.42;67.60
65553;BME280;72126;51.560;14.368;2024-02-23T01:54:25;97625.34;;;11.42;67.74
65553;BME280;72126;51.560;14.368;2024-02-23T01:56:52;97617.94;;;11.38;67.67
65553;BME280;72126;51.560;14.368;2024-02-23T01:59:18;97623.19;;;11.38;67.69
65553;BME280;72126;51.560;14.368;2024-02-23T02:01:43;97638.44;;;11.42;67.66
65553;BME280;72126;51.560;14.368;2024-02-23T02:04:08;97647.34;;;11.41;67.85
65553;BME280;72126;51.560;14.368;2024-02-23T02:06:34;97649.97;;;11.41;67.75
65553;BME280;72126;51.560;14.368;2024-02-23T02:09:00;97664.66;;;11.42;67.69
65553;BME280;72126;51.560;14.368;2024-02-23T02:11:25;97675.56;;;11.38;67.75
65553;BME280;72126;51.560;14.368;2024-02-23T02:13:50;97665.69;;;11.41;67.77
65553;BME280;72126;51.560;14.368;2024-02-23T02:16:16;97681.41;;;11.41;67.55
65553;BME280;72126;51.560;14.368;2024-02-23T02:18:41;97677.19;;;11.39;67.77
65553;BME280;72126;51.560;14.368;2024-02-23T02:21:06;97695.53;;;11.39;67.82
65553;BME280;72126;51.560;14.368;2024-02-23T02:23:31;97697.09;;;11.41;67.59
65553;BME280;72126;51.560;14.368;2024-02-23T02:25:57;97704.97;;;11.41;67.78
65553;BME280;72126;51.560;14.368;2024-02-23T02:28:24;97702.56;;;11.39;67.47
65553;BME280;72126;51.560;14.368;2024-02-23T02:30:50;97710.22;;;11.41;67.62
65553;BME280;72126;51.560;14.368;2024-02-23T02:33:16;97686.84;;;11.39;67.67
65553;BME280;72126;51.560;14.368;2024-02-23T02:35:41;97696.31;;;11.40;67.78
65553;BME280;72126;51.560;14.368;2024-02-23T02:38:06;97715.44;;;11.41;67.47
65553;BME280;72126;51.560;14.368;2024-02-23T02:40:31;97711.25;;;11.39;67.91
65553;BME280;72126;51.560;14.368;2024-02-23T02:42:57;97717.03;;;11.42;67.59
65553;BME280;72126;51.560;14.368;2024-02-23T02:45:22;97724.91;;;11.42;67.48
65553;BME280;72126;51.560;14.368;2024-02-23T02:47:47;97727.75;;;11.40;67.70
65553;BME280;72126;51.560;14.368;2024-02-23T02:50:13;97728.97;;;11.37;67.73
65553;BME280;72126;51.560;14.368;2024-02-23T02:52:38;97737.19;;;11.41;67.46
65553;BME280;72126;51.560;14.368;2024-02-23T02:55:03;97728.53;;;11.41;67.34
65553;BME280;72126;51.560;14.368;2024-02-23T02:57:29;97738.00;;;11.42;67.53
65553;BME280;72126;51.560;14.368;2024-02-23T02:59:54;97729.56;;;11.39;67.44
65553;BME280;72126;51.560;14.368;2024-02-23T03:02:19;97746.88;;;11.41;67.45
65553;BME280;72126;51.560;14.368;2024-02-23T03:04:48;97738.22;;;11.40;67.35
65553;BME280;72126;51.560;14.368;2024-02-23T03:07:13;97746.66;;;11.42;67.58
65553;BME280;72126;51.560;14.368;2024-02-23T03:09:38;97752.91;;;11.41;67.78
65553;BME280;72126;51.560;14.368;2024-02-23T03:12:04;97754.94;;;11.39;67.39
65553;BME280;72126;51.560;14.368;2024-02-23T03:14:29;97747.09;;;11.39;67.46
65553;BME280;72126;51.560;14.368;2024-02-23T03:16:54;97753.72;;;11.42;67.57
65553;BME280;72126;51.560;14.368;2024-02-23T03:19:19;97768.63;;;11.41;67.75
65553;BME280;72126;51.560;14.368;2024-02-23T03:21:44;97780.13;;;11.40;67.27
65553;BME280;72126;51.560;14.368;2024-02-23T03:24:09;97797.44;;;11.41;67.55
65553;BME280;72126;51.560;14.368;2024-02-23T03:26:35;97798.13;;;11.36;67.68
65553;BME280;72126;51.560;14.368;2024-02-23T03:29:00;97803.72;;;11.40;67.28
65553;BME280;72126;51.560;14.368;2024-02-23T03:31:25;97808.97;;;11.40;67.42
65553;BME280;72126;51.560;14.368;2024-02-23T03:33:50;97819.63;;;11.38;67.41
65553;BME280;72126;51.560;14.368;2024-02-23T03:36:16;97825.47;;;11.41;67.47
65553;BME280;72126;51.560;14.368;2024-02-23T03:38:41;97832.53;;;11.40;67.51
65553;BME280;72126;51.560;14.368;2024-02-23T03:41:06;97840.16;;;11.42;67.27
65553;BME280;72126;51.560;14.368;2024-02-23T03:43:31;97836.75;;;11.41;67.34
65553;BME280;72126;51.560;14.368;2024-02-23T03:45:56;97833.75;;;11.37;67.16
65553;BME280;72126;51.560;14.368;2024-02-23T03:48:22;97849.06;;;11.41;67.28
65553;BME280;72126;51.560;14.368;2024-02-23T03:50:47;97852.69;;;11.39;67.25
65553;BME280;72126;51.560;14.368;2024-02-23T03:53:12;97858.72;;;11.40;67.18
65553;BME280;72126;51.560;14.368;2024-02-23T03:55:37;97866.59;;;11.40;67.27
65553;BME280;72126;51.560;14.368;2024-02-23T03:58:02;97876.84;;;11.42;67.29
65553;BME280;72126;51.560;14.368;2024-02-23T04:00:28;97884.94;;;11.40;67.52
65553;BME280;72126;51.560;14.368;2024-02-23T04:02:53;97891.16;;;11.39;67.45
65553;BME280;72126;51.560;14.368;2024-02-23T04:05:18;97894.63;;;11.39;67.43
65553;BME280;72126;51.560;14.368;2024-02-23T04:07:43;97910.31;;;11.39;67.51
65553;BME280;72126;51.560;14.368;2024-02-23T04:10:08;97929.47;;;11.40;67.30
65553;BME280;72126;51.560;14.368;2024-02-23T04:12:34;97930.47;;;11.39;67.37
65553;BME280;72126;51.560;14.368;2024-02-23T04:14:59;97936.53;;;11.39;67.22
65553;BME280;72126;51.560;14.368;2024-02-23T04:17:24;97948.78;;;11.39;67.24
65553;BME280;72126;51.560;14.368;2024-02-23T04:19:49;97954.88;;;11.39;67.25
65553;BME280;72126;51.560;14.368;2024-02-23T04:22:14;97961.69;;;11.41;67.17
65553;BME280;72126;51.560;14.368;2024-02-23T04:24:40;97974.00;;;11.40;67.48
65553;BME280;72126;51.560;14.368;2024-02-23T04:27:06;97968.97;;;11.38;67.17
65553;BME280;72126;51.560;14.368;2024-02-23T04:29:32;97985.47;;;11.39;67.22
65553;BME280;72126;51.560;14.368;2024-02-23T04:31:59;97979.66;;;11.37;67.30
65553;BME280;72126;51.560;14.368;2024-02-23T04:34:24;97988.91;;;11.39;67.38
65553;BME280;72126;51.560;14.368;2024-02-23T04:36:49;97992.75;;;11.37;67.35
65553;BME280;72126;51.560;14.368;2024-02-23T04:39:14;98012.69;;;11.38;67.29
65553;BME280;72126;51.560;14.368;2024-02-23T04:41:40;98017.94;;;11.38;67.14
65553;BME280;72126;51.560;14.368;2024-02-23T04:44:05;98028.22;;;11.39;67.07
65553;BME280;72126;51.560;14.368;2024-02-23T04:46:30;98030.84;;;11.39;67.20
65553;BME280;72126;51.560;14.368;2024-02-23T04:48:56;98030.44;;;11.36;67.32
65553;BME280;72126;51.560;14.368;2024-02-23T04:51:21;98044.34;;;11.36;67.31
65553;BME280;72126;51.560;14.368;2024-02-23T04:53:46;98051.78;;;11.39;67.15
65553;BME280;72126;51.560;14.368;2024-02-23T04:56:11;98056.19;;;11.39;67.02
65553;BME280;72126;51.560;14.368;2024-02-23T04:58:37;98066.91;;;11.37;67.22
65553;BME280;72126;51.560;14.368;2024-02-23T05:01:02;98068.50;;;11.38;67.02
65553;BME280;72126;51.560;14.368;2024-02-23T05:03:27;98065.09;;;11.38;67.26
65553;BME280;72126;51.560;14.368;2024-02-23T05:05:52;98073.75;;;11.38;66.95
65553;BME280;72126;51.560;14.368;2024-02-23T05:08:18;98084.22;;;11.38;67.21
65553;BME280;72126;51.560;14.368;2024-02-23T05:10:46;98091.28;;;11.38;67.04
65553;BME280;72126;51.560;14.368;2024-02-23T05:13:12;98096.53;;;11.38;67.24
65553;BME280;72126;51.560;14.368;2024-02-23T05:15:37;98114.84;;;11.38;66.93
65553;BME280;72126;51.560;14.368;2024-02-23T05:18:02;98099.38;;;11.36;67.29
65553;BME280;72126;51.560;14.368;2024-02-23T05:20:27;98105.19;;;11.38;67.08
65553;BME280;72126;51.560;14.368;2024-02-23T05:22:53;98115.88;;;11.37;67.16
65553;BME280;72126;51.560;14.368;2024-02-23T05:25:18;98131.59;;;11.37;67.16
65553;BME280;72126;51.560;14.368;2024-02-23T05:27:43;98133.84;;;11.33;67.00
65553;BME280;72126;51.560;14.368;2024-02-23T05:30:08;98144.69;;;11.37;67.00
65553;BME280;72126;51.560;14.368;2024-02-23T05:32:34;98159.63;;;11.36;67.16
65553;BME280;72126;51.560;14.368;2024-02-23T05:34:59;98164.84;;;11.36;67.23
65553;BME280;72126;51.560;14.368;2024-02-23T05:37:24;98163.84;;;11.37;66.88
65553;BME280;72126;51.560;14.368;2024-02-23T05:39:49;98173.50;;;11.37;66.93
65553;BME280;72126;51.560;14.368;2024-02-23T05:42:14;98165.88;;;11.35;66.97
65553;BME280;72126;51.560;14.368;2024-02-23T05:44:43;98167.47;;;11.36;66.99
65553;BME280;72126;51.560;14.368;2024-02-23T05:47:08;98170.50;;;11.33;67.08
65553;BME280;72126;51.560;14.368;2024-02-23T05:49:33;98172.94;;;11.35;66.95
65553;BME280;72126;51.560;14.368;2024-02-23T05:51:58;98180.56;;;11.36;67.21
65553;BME280;72126;51.560;14.368;2024-02-23T05:54:24;98171.34;;;11.34;67.05
65553;BME280;72126;51.560;14.368;2024-02-23T05:56:49;98180.00;;;11.34;66.94
65553;BME280;72126;51.560;14.368;2024-02-23T05:59:14;98177.56;;;11.33;67.01
65553;BME280;72126;51.560;14.368;2024-02-23T06:01:39;98183.41;;;11.35;67.15
65553;BME280;72126;51.560;14.368;2024-02-23T06:04:04;98174.53;;;11.36;67.01
65553;BME280;72126;51.560;14.368;2024-02-23T06:06:33;98163.47;;;11.34;67.10
65553;BME280;72126;51.560;14.368;2024-02-23T06:08:58;98167.88;;;11.33;66.92
65553;BME280;72126;51.560;14.368;2024-02-23T06:11:23;98185.00;;;11.36;67.35
65553;BME280;72126;51.560;14.368;2024-02-23T06:13:48;98178.19;;;11.35;67.06
65553;BME280;72126;51.560;14.368;2024-02-23T06:16:13;98184.63;;;11.32;67.08
65553;BME280;72126;51.560;14.368;2024-02-23T06:18:39;98199.94;;;11.35;66.92
65553;BME280;72126;51.560;14.368;2024-02-23T06:21:14;98214.06;;;11.34;67.12
65553;BME280;72126;51.560;14.368;2024-02-23T06:23:39;98222.50;;;11.36;67.06
65553;BME280;72126;51.560;14.368;2024-02-23T06:26:05;98226.13;;;11.35;67.16
65553;BME280;72126;51.560;14.368;2024-02-23T06:28:30;98237.63;;;11.34;67.04
65553;BME280;72126;51.560;14.368;2024-02-23T06:30:55;98246.28;;;11.35;67.25
65553;BME280;72126;51.560;14.368;2024-02-23T06:33:20;98251.53;;;11.35;67.23
65553;BME280;72126;51.560;14.368;2024-02-23T06:35:46;98253.34;;;11.34;67.05
65553;BME280;72126;51.560;14.368;2024-02-23T06:38:14;98258.78;;;11.33;67.08
65553;BME280;72126;51.560;14.368;2024-02-23T06:40:39;98259.56;;;11.33;67.13
65553;BME280;72126;51.560;14.368;2024-02-23T06:43:04;98263.81;;;11.34;66.97
65553;BME280;72126;51.560;14.368;2024-02-23T06:45:29;98274.31;;;11.34;67.05
65553;BME280;72126;51.560;14.368;2024-02-23T06:47:55;98270.88;;;11.34;67.08
65553;BME280;72126;51.560;14.368;2024-02-23T06:50:20;98284.78;;;11.34;67.22
65553;BME280;72126;51.560;14.368;2024-02-23T06:52:45;98287.59;;;11.33;66.81
65553;BME280;72126;51.560;14.368;2024-02-23T06:55:10;98295.25;;;11.34;66.79
65553;BME280;72126;51.560;14.368;2024-02-23T06:57:35;98289.41;;;11.32;66.90
65553;BME280;72126;51.560;14.368;2024-02-23T07:00:00;98289.00;;;11.35;66.86
65553;BME280;72126;51.560;14.368;2024-02-23T07:02:26;98285.78;;;11.33;67.04
65553;BME280;72126;51.560;14.368;2024-02-23T07:04:51;98289.81;;;11.36;66.88
65553;BME280;72126;51.560;14.368;2024-02-23T07:07:16;98277.91;;;11.33;66.94
65553;BME280;72126;51.560;14.368;2024-02-23T07:09:41;98271.06;;;11.32;67.01
65553;BME280;72126;51.560;14.368;2024-02-23T07:12:06;98284.78;;;11.34;67.08
65553;BME280;72126;51.560;14.368;2024-02-23T07:14:32;98276.31;;;11.32;67.03
65553;BME280;72126;51.560;14.368;2024-02-23T07:16:57;98286.59;;;11.34;67.12
65553;BME280;72126;51.560;14.368;2024-02-23T07:19:22;98288.59;;;11.32;67.22
65553;BME280;72126;51.560;14.368;2024-02-23T07:21:47;98287.41;;;11.34;67.19
65553;BME280;72126;51.560;14.368;2024-02-23T07:24:13;98285.78;;;11.33;66.94
65553;BME280;72126;51.560;14.368;2024-02-23T07:26:38;98280.75;;;11.32;66.97
65553;BME280;72126;51.560;14.368;2024-02-23T07:29:03;98287.41;;;11.34;66.88
65553;BME280;72126;51.560;14.368;2024-02-23T07:31:28;98289.41;;;11.32;66.87
65553;BME280;72126;51.560;14.368;2024-02-23T07:33:54;98286.59;;;11.34;67.05
65553;BME280;72126;51.560;14.368;2024-02-23T07:36:19;98282.16;;;11.34;67.19
65553;BME280;72126;51.560;14.368;2024-02-23T07:38:44;98292.81;;;11.33;66.88
65553;BME280;72126;51.560;14.368;2024-02-23T07:41:12;98302.94;;;11.29;67.26
65553;BME280;72126;51.560;14.368;2024-02-23T07:43:37;98322.44;;;11.33;67.22
65553;BME280;72126;51.560;14.368;2024-02-23T07:46:02;98326.50;;;11.29;67.14
65553;BME280;72126;51.560;14.368;2024-02-23T07:48:28;98338.38;;;11.32;67.06
65553;BME280;72126;51.560;14.368;2024-02-23T07:50:53;98343.41;;;11.33;67.13
65553;BME280;72126;51.560;14.368;2024-02-23T07:53:19;98357.13;;;11.35;67.00
65553;BME280;72126;51.560;14.368;2024-02-23T07:55:44;98353.88;;;11.33;66.96
65553;BME280;72126;51.560;14.368;2024-02-23T07:58:09;98366.00;;;11.34;67.14
65553;BME280;72126;51.560;14.368;2024-02-23T08:00:34;98381.72;;;11.34;67.32
65553;BME280;72126;51.560;14.368;2024-02-23T08:02:59;98392.38;;;11.33;67.11
65553;BME280;72126;51.560;14.368;2024-02-23T08:05:25;98404.28;;;11.35;67.09
65553;BME280;72126;51.560;14.368;2024-02-23T08:07:50;98396.81;;;11.32;67.17
65553;BME280;72126;51.560;14.368;2024-02-23T08:10:15;98407.91;;;11.34;67.02
65553;BME280;72126;51.560;14.368;2024-02-23T08:12:40;98417.38;;;11.35;67.48
65553;BME280;72126;51.560;14.368;2024-02-23T08:15:06;98418.38;;;11.34;66.97
65553;BME280;72126;51.560;14.368;2024-02-23T08:17:31;98436.72;;;11.34;66.87
65553;BME280;72126;51.560;14.368;2024-02-23T08:19:56;98424.63;;;11.33;66.94
65553;BME280;72126;51.560;14.368;2024-02-23T08:22:22;98430.47;;;11.35;66.81
65553;BME280;72126;51.560;14.368;2024-02-23T08:24:47;98443.56;;;11.35;66.85
65553;BME280;72126;51.560;14.368;2024-02-23T08:27:12;98454.06;;;11.35;66.89
65553;BME280;72126;51.560;14.368;2024-02-23T08:29:38;98454.06;;;11.35;67.09
65553;BME280;72126;51.560;14.368;2024-02-23T08:32:03;98455.66;;;11.36;67.10
65553;BME280;72126;51.560;14.368;2024-02-23T08:34:28;98466.13;;;11.36;66.89
65553;BME280;72126;51.560;14.368;2024-02-23T08:36:53;98460.88;;;11.36;66.88
65553;BME280;72126;51.560;14.368;2024-02-23T08:39:19;98451.44;;;11.35;66.75
65553;BME280;72126;51.560;14.368;2024-02-23T08:41:44;98447.78;;;11.36;66.99
65553;BME280;72126;51.560;14.368;2024-02-23T08:44:09;98453.03;;;11.36;67.01
65553;BME280;72126;51.560;14.368;2024-02-23T08:46:34;98445.16;;;11.36;66.82
65553;BME280;72126;51.560;14.368;2024-02-23T08:48:59;98454.63;;;11.37;66.99
65553;BME280;72126;51.560;14.368;2024-02-23T08:51:25;98456.66;;;11.35;66.88
65553;BME280;72126;51.560;14.368;2024-02-23T08:53:50;98453.03;;;11.36;66.73
65553;BME280;72126;51.560;14.368;2024-02-23T08:56:15;98464.31;;;11.37;66.94
65553;BME280;72126;51.560;14.368;2024-02-23T08:58:40;98468.75;;;11.36;66.97
65553;BME280;72126;51.560;14.368;2024-02-23T09:01:05;98471.16;;;11.38;66.68
65553;BME280;72126;51.560;14.368;2024-02-23T09:03:30;98478.00;;;11.39;66.88
65553;BME280;72126;51.560;14.368;2024-02-23T09:05:56;98474.78;;;11.37;66.71
65553;BME280;72126;51.560;14.368;2024-02-23T09:08:21;98479.03;;;11.38;66.90
65553;BME280;72126;51.560;14.368;2024-02-23T09:10:46;98479.03;;;11.38;66.81
65553;BME280;72126;51.560;14.368;2024-02-23T09:13:11;98479.81;;;11.38;66.77
65553;BME280;72126;51.560;14.368;2024-02-23T09:15:36;98485.88;;;11.39;66.74
65553;BME280;72126;51.560;14.368;2024-02-23T09:18:02;98476.22;;;11.39;66.80
65553;BME280;72126;51.560;14.368;2024-02-23T09:20:27;98474.78;;;11.37;66.51
65553;BME280;72126;51.560;14.368;2024-02-23T09:22:52;98486.69;;;11.39;66.69
65553;BME280;72126;51.560;14.368;2024-02-23T09:25:18;98499.78;;;11.39;66.57
65553;BME280;72126;51.560;14.368;2024-02-23T09:27:43;98496.16;;;11.41;66.68
65553;BME280;72126;51.560;14.368;2024-02-23T09:30:12;98496.56;;;11.37;66.78
65553;BME280;72126;51.560;14.368;2024-02-23T09:32:38;98505.03;;;11.39;66.68
65553;BME280;72126;51.560;14.368;2024-02-23T09:35:03;98511.25;;;11.38;66.73
65553;BME280;72126;51.560;14.368;2024-02-23T09:37:28;98510.28;;;11.39;66.35
65553;BME280;72126;51.560;14.368;2024-02-23T09:39:54;98531.81;;;11.42;66.74
65553;BME280;72126;51.560;14.368;2024-02-23T09:42:22;98527.59;;;11.41;66.55
65553;BME280;72126;51.560;14.368;2024-02-23T09:44:49;98526.81;;;11.40;66.78
65553;BME280;72126;51.560;14.368;2024-02-23T09:47:17;98521.34;;;11.42;66.55
65553;BME280;72126;51.560;14.368;2024-02-23T09:49:42;98530.00;;;11.42;66.57
65553;BME280;72126;51.560;14.368;2024-02-23T09:52:09;98525.56;;;11.43;66.69
65553;BME280;72126;51.560;14.368;2024-02-23T09:54:38;98531.03;;;11.41;66.80
65553;BME280;72126;51.560;14.368;2024-02-23T09:57:07;98531.81;;;11.42;66.66
65553;BME280;72126;51.560;14.368;2024-02-23T09:59:33;98541.28;;;11.43;66.84
65553;BME280;72126;51.560;14.368;2024-02-23T10:01:58;98542.31;;;11.42;66.71
65553;BME280;72126;51.560;14.368;2024-02-23T10:04:26;98541.88;;;11.45;66.66
65553;BME280;72126;51.560;14.368;2024-02-23T10:06:52;98534.84;;;11.45;66.63
65553;BME280;72126;51.560;14.368;2024-02-23T10:09:17;98536.66;;;11.45;66.84
65553;BME280;72126;51.560;14.368;2024-02-23T10:11:42;98545.13;;;11.47;66.52
65553;BME280;72126;51.560;14.368;2024-02-23T10:14:08;98545.13;;;11.47;66.47
65553;BME280;72126;51.560;14.368;2024-02-23T10:16:33;98538.06;;;11.47;66.73
65553;BME280;72126;51.560;14.368;2024-02-23T10:19:04;98528.38;;;11.48;66.64
65553;BME280;72126;51.560;14.368;2024-02-23T10:21:29;98531.00;;;11.48;66.59
65553;BME280;72126;51.560;14.368;2024-02-23T10:23:55;98523.94;;;11.48;66.52
65553;BME280;72126;51.560;14.368;2024-02-23T10:26:20;98523.16;;;11.48;66.48
65553;BME280;72126;51.560;14.368;2024-02-23T10:28:45;98511.66;;;11.49;66.47
65553;BME280;72126;51.560;14.368;2024-02-23T10:31:11;98521.13;;;11.50;66.46
65553;BME280;72126;51.560;14.368;2024-02-23T10:33:36;98522.34;;;11.47;66.62
65553;BME280;72126;51.560;14.368;2024-02-23T10:36:04;98519.50;;;11.49;66.60
65553;BME280;72126;51.560;14.368;2024-02-23T10:38:32;98518.72;;;11.48;66.60
65553;BME280;72126;51.560;14.368;2024-02-23T10:40:58;98534.84;;;11.52;66.60
65553;BME280;72126;51.560;14.368;2024-02-23T10:43:30;98525.56;;;11.49;66.67
65553;BME280;72126;51.560;14.368;2024-02-23T10:45:57;98527.78;;;11.52;66.40
65553;BME280;72126;51.560;14.368;2024-02-23T10:48:23;98528.38;;;11.54;66.32
65553;BME280;72126;51.560;14.368;2024-02-23T10:50:50;98527.56;;;11.54;66.48
65553;BME280;72126;51.560;14.368;2024-02-23T10:53:16;98528.59;;;11.53;66.54
65553;BME280;72126;51.560;14.368;2024-02-23T10:55:43;98519.13;;;11.52;66.58
65553;BME280;72126;51.560;14.368;2024-02-23T10:58:10;98529.16;;;11.55;66.43
65553;BME280;72126;51.560;14.368;2024-02-23T11:00:36;98537.03;;;11.55;66.37
65553;BME280;72126;51.560;14.368;2024-02-23T11:03:03;98542.09;;;11.56;66.45
65553;BME280;72126;51.560;14.368;2024-02-23T11:05:29;98539.47;;;11.50;66.56
65553;BME280;72126;51.560;14.368;2024-02-23T11:07:57;98543.69;;;11.57;66.32
65553;BME280;72126;51.560;14.368;2024-02-23T11:10:23;98549.13;;;11.56;66.50
65553;BME280;72126;51.560;14.368;2024-02-23T11:12:57;98551.56;;;11.57;66.34
65553;BME280;72126;51.560;14.368;2024-02-23T11:15:29;98546.50;;;11.56;66.47
65553;BME280;72126;51.560;14.368;2024-02-23T11:17:58;98542.09;;;11.56;66.18
65553;BME280;72126;51.560;14.368;2024-02-23T11:20:23;98543.69;;;11.57;66.30
65553;BME280;72126;51.560;14.368;2024-02-23T11:22:51;98553.16;;;11.58;66.34
65553;BME280;72126;51.560;14.368;2024-02-23T11:25:17;98556.00;;;11.57;66.17
65553;BME280;72126;51.560;14.368;2024-02-23T11:27:42;98568.09;;;11.58;66.37
65553;BME280;72126;51.560;14.368;2024-02-23T11:30:08;98574.34;;;11.57;66.34
65553;BME280;72126;51.560;14.368;2024-02-23T11:32:43;98575.94;;;11.58;66.25
65553;BME280;72126;51.560;14.368;2024-02-23T11:35:10;98574.72;;;11.60;66.15
65553;BME280;72126;51.560;14.368;2024-02-23T11:40:17;98574.94;;;11.59;66.17
65553;BME280;72126;51.560;14.368;2024-02-23T11:42:43;98570.28;;;11.61;66.11
65553;BME280;72126;51.560;14.368;2024-02-23T11:45:08;98570.50;;;11.59;66.06
65553;BME280;72126;51.560;14.368;2024-02-23T11:47:33;98571.31;;;11.60;66.04
65553;BME280;72126;51.560;14.368;2024-02-23T11:49:58;98584.41;;;11.60;66.14
65553;BME280;72126;51.560;14.368;2024-02-23T11:52:24;98579.78;;;11.62;66.21
65553;BME280;72126;51.560;14.368;2024-02-23T11:54:49;98575.53;;;11.61;66.42
65553;BME280;72126;51.560;14.368;2024-02-23T11:57:15;98584.00;;;11.63;66.03
65553;BME280;72126;51.560;14.368;2024-02-23T11:59:40;98580.38;;;11.64;66.09
65553;BME280;72126;51.560;14.368;2024-02-23T12:02:06;98580.38;;;11.64;65.85
65553;BME280;72126;51.560;14.368;2024-02-23T12:04:31;98564.66;;;11.64;65.97
65553;BME280;72126;51.560;14.368;2024-02-23T12:06:57;98568.88;;;11.65;66.11
65553;BME280;72126;51.560;14.368;2024-02-23T12:09:22;98566.25;;;11.65;66.07
65553;BME280;72126;51.560;14.368;2024-02-23T12:11:47;98560.00;;;11.66;66.21
65553;BME280;72126;51.560;14.368;2024-02-23T12:14:13;98571.09;;;11.68;65.97
65553;BME280;72126;51.560;14.368;2024-02-23T12:16:40;98566.84;;;11.67;65.97
65553;BME280;72126;51.560;14.368;2024-02-23T12:19:05;98573.91;;;11.66;66.19
65553;BME280;72126;51.560;14.368;2024-02-23T12:21:30;98581.19;;;11.64;66.00
65553;BME280;72126;51.560;14.368;2024-02-23T12:23:55;98577.53;;;11.65;66.17
65553;BME280;72126;51.560;14.368;2024-02-23T12:26:20;98582.56;;;11.67;65.96
65553;BME280;72126;51.560;14.368;2024-02-23T12:28:46;98566.84;;;11.60;65.89
65553;BME280;72126;51.560;14.368;2024-02-23T12:31:11;98571.09;;;11.68;66.09
65553;BME280;72126;51.560;14.368;2024-02-23T12:33:40;98579.56;;;11.70;66.00
65553;BME280;72126;51.560;14.368;2024-02-23T12:36:07;98575.13;;;11.71;66.12
65553;BME280;72126;51.560;14.368;2024-02-23T12:38:33;98581.97;;;11.72;65.99
65553;BME280;72126;51.560;14.368;2024-02-23T12:41:00;98585.38;;;11.72;66.17
65553;BME280;72126;51.560;14.368;2024-02-23T12:43:26;98590.63;;;11.72;66.24